createdAt,value
2023-02-15T00:04:43.888Z,1.6
2023-02-15T00:09:44.268Z,1.5
2023-02-15T00:14:44.352Z,1.6
2023-02-15T00:20:37.107Z,1.6
2023-02-15T00:25:37.139Z,1.5
2023-02-15T00:30:44.329Z,1.6
2023-02-15T00:36:37.162Z,1.6
2023-02-15T00:41:44.562Z,1.4
2023-02-15T00:47:37.108Z,1.5
2023-02-15T00:52:37.136Z,1.5
2023-02-15T00:57:44.214Z,1.4
2023-02-15T01:02:44.582Z,1.4
2023-02-15T01:08:37.097Z,1.3
2023-02-15T01:13:43.872Z,1.2
2023-02-15T01:18:44.570Z,1.1
2023-02-15T01:23:45.969Z,1.4
2023-02-15T01:29:37.156Z,1.2
2023-02-15T01:34:44.029Z,1.1
2023-02-15T01:40:37.156Z,1
2023-02-15T01:45:43.946Z,1
2023-02-15T01:50:44.495Z,1
2023-02-15T01:56:37.187Z,0.9
2023-02-15T02:01:44.014Z,0.9
2023-02-15T02:07:37.416Z,0.9
2023-02-15T02:12:37.186Z,0.7
2023-02-15T02:17:44.391Z,0.8
2023-02-15T02:23:37.175Z,0.6
2023-02-15T02:28:43.875Z,0.7
2023-02-15T02:33:44.253Z,0.7
2023-02-15T02:39:37.163Z,0.6
2023-02-15T02:44:44.507Z,0.7
2023-02-15T02:50:37.134Z,0.6
2023-02-15T02:56:37.164Z,0.6
2023-02-15T03:01:37.160Z,0.6
2023-02-15T03:06:42.730Z,0.7
2023-02-15T03:11:45.751Z,0.6
2023-02-15T03:17:37.138Z,0.7
2023-02-15T03:22:37.157Z,0.4
2023-02-15T03:27:43.885Z,0.5
2023-02-15T03:32:44.095Z,0.3
2023-02-15T03:37:44.837Z,0.3
2023-02-15T03:43:37.170Z,0.3
2023-02-15T03:48:43.855Z,0.2
2023-02-15T03:53:43.919Z,0.2
2023-02-15T03:59:37.156Z,0.4
2023-02-15T04:04:43.829Z,0.3
2023-02-15T04:10:37.092Z,0.4
2023-02-15T04:15:37.094Z,0.3
2023-02-15T04:20:43.854Z,0.4
2023-02-15T04:25:44.097Z,0.3
2023-02-15T04:31:37.435Z,0.2
2023-02-15T04:36:43.868Z,0.2
2023-02-15T04:41:44.223Z,0.3
2023-02-15T04:47:37.158Z,0.3
2023-02-15T04:52:44.421Z,0.4
2023-02-15T04:58:37.101Z,0.2
2023-02-15T05:03:43.845Z,0.2
2023-02-15T05:08:43.870Z,0.2
2023-02-15T05:13:43.942Z,0.1
2023-02-15T05:19:37.201Z,0.2
2023-02-15T05:24:43.839Z,0.2
2023-02-15T05:29:44.856Z,0.2
2023-02-15T05:35:37.120Z,0.1
2023-02-15T05:40:44.050Z,0.1
2023-02-15T05:46:37.135Z,0
2023-02-15T05:51:37.146Z,-0.1
2023-02-15T05:56:43.909Z,0
2023-02-15T06:02:37.071Z,0.1
2023-02-15T06:07:37.094Z,0
2023-02-15T06:12:37.103Z,0.1
2023-02-15T06:17:37.126Z,0.1
2023-02-15T06:22:43.850Z,0.1
2023-02-15T06:27:44.568Z,0.1
2023-02-15T06:33:37.105Z,0
2023-02-15T06:38:44.157Z,-0.2
2023-02-15T06:43:44.338Z,0
2023-02-15T06:49:37.089Z,-0.1
2023-02-15T06:54:43.868Z,-0.1
2023-02-15T06:59:44.286Z,0
2023-02-15T07:05:37.073Z,0
2023-02-15T07:10:37.088Z,0.1
2023-02-15T07:15:37.218Z,0
2023-02-15T07:20:37.642Z,0.2
2023-02-15T07:25:43.911Z,0.3
2023-02-15T07:30:44.297Z,0.3
2023-02-15T07:36:37.030Z,0.5
2023-02-15T07:41:37.085Z,0.6
2023-02-15T07:46:44.393Z,0.6
2023-02-15T07:52:37.019Z,0.6
2023-02-15T07:57:37.093Z,0.9
2023-02-15T08:02:44.437Z,1
2023-02-15T08:08:37.010Z,1.2
2023-02-15T08:13:37.067Z,1.4
2023-02-15T08:18:43.814Z,1.8
2023-02-15T08:23:44.248Z,2.1
2023-02-15T08:28:44.362Z,2.6
2023-02-15T08:33:44.368Z,2.5
2023-02-15T08:39:37.037Z,2.3
2023-02-15T08:44:44.502Z,2.4
2023-02-15T08:50:37.018Z,2.4
2023-02-15T08:55:44.427Z,2.4
2023-02-15T09:01:37.215Z,2.7
2023-02-15T09:06:37.135Z,3.2
2023-02-15T09:11:43.806Z,3.8
2023-02-15T09:16:43.977Z,3.2
2023-02-15T09:22:37.022Z,3
2023-02-15T09:27:44.560Z,3.3
2023-02-15T09:33:37.086Z,3.4
2023-02-15T09:38:44.552Z,3.6
2023-02-15T09:44:37.070Z,3.8
2023-02-15T09:49:43.887Z,3.9
2023-02-15T09:55:37.074Z,3.9
2023-02-15T10:00:43.962Z,4.2
2023-02-15T10:05:44.607Z,4.5
2023-02-15T10:11:36.996Z,4.9
2023-02-15T10:16:37.084Z,5.4
2023-02-15T10:21:37.109Z,5.2
2023-02-15T10:26:43.872Z,5.4
2023-02-15T10:32:37.015Z,5.8
2023-02-15T10:37:37.113Z,6
2023-02-15T10:42:43.771Z,6.6
2023-02-15T10:47:44.169Z,6.6
2023-02-15T10:52:44.471Z,7.2
2023-02-15T10:58:37.062Z,7.3
2023-02-15T11:03:44.437Z,7.3
2023-02-15T11:09:37.071Z,7.5
2023-02-15T11:14:43.808Z,8
2023-02-15T11:19:44.655Z,8.6
2023-02-15T11:25:37.032Z,8.1
2023-02-15T11:30:37.128Z,8.4
2023-02-15T11:35:44.437Z,8.3
2023-02-15T11:41:37.039Z,8.3
2023-02-15T11:46:37.118Z,8.1
2023-02-15T11:51:44.291Z,8
2023-02-15T11:57:37.033Z,8.3
2023-02-15T12:02:44.282Z,8.5
2023-02-15T12:07:44.385Z,8.6
2023-02-15T12:13:37.101Z,8.7
2023-02-15T12:18:43.830Z,8.9
2023-02-15T12:23:44.530Z,9.1
2023-02-15T12:29:37.091Z,8.8
2023-02-15T12:34:44.338Z,8.8
2023-02-15T12:40:37.044Z,9
2023-02-15T12:45:37.256Z,9
2023-02-15T12:50:44.420Z,9.2
2023-02-15T12:56:37.067Z,9.1
2023-02-15T13:01:43.950Z,9.1
2023-02-15T13:06:44.392Z,9.1
2023-02-15T13:11:44.442Z,9.4
2023-02-15T13:16:44.528Z,9.3
2023-02-15T13:22:37.051Z,9.2
2023-02-15T13:27:37.073Z,9.4
2023-02-15T13:32:44.188Z,9.5
2023-02-15T13:37:44.683Z,9.5
2023-02-15T13:42:44.836Z,9.7
2023-02-15T13:48:48.399Z,9.6
2023-02-15T13:53:44.611Z,9.6
2023-02-15T13:59:37.058Z,9.4
2023-02-15T14:04:43.787Z,9.2
2023-02-15T14:09:44.126Z,9.3
2023-02-15T14:15:37.062Z,9.4
2023-02-15T14:20:43.778Z,9.5
2023-02-15T14:25:43.887Z,9.6
2023-02-15T14:31:37.223Z,9.5
2023-02-15T14:36:37.019Z,9.6
2023-02-15T14:41:37.138Z,9.6
2023-02-15T14:46:43.836Z,9.7
2023-02-15T14:51:44.708Z,9.6
2023-02-15T14:57:37.430Z,9.3
2023-02-15T15:02:37.026Z,9.3
2023-02-15T15:07:37.090Z,9.1
2023-02-15T15:12:37.074Z,9.3
2023-02-15T15:17:44.180Z,9.4
2023-02-15T15:23:37.051Z,9.4
2023-02-15T15:28:37.075Z,9.2
2023-02-15T15:33:44.769Z,9.2
2023-02-15T15:39:37.114Z,9.1
2023-02-15T15:44:44.342Z,9.1
2023-02-15T15:50:37.004Z,8.9
2023-02-15T15:55:37.048Z,8.8
2023-02-15T16:00:44.195Z,8.6
2023-02-15T16:06:37.102Z,8.5
2023-02-15T16:11:44.540Z,8.5
2023-02-15T16:17:37.113Z,8.4
2023-02-15T16:22:43.825Z,8.2
2023-02-15T16:27:44.297Z,8.2
2023-02-15T16:33:37.112Z,8
2023-02-15T16:38:44.463Z,7.9
2023-02-15T16:43:44.527Z,7.7
2023-02-15T16:49:37.039Z,7.6
2023-02-15T16:54:44.510Z,7.5
2023-02-15T17:00:37.146Z,7.5
2023-02-15T17:05:43.792Z,7.4
2023-02-15T17:10:43.917Z,7.2
2023-02-15T17:15:43.952Z,7.1
2023-02-15T17:21:37.034Z,6.9
2023-02-15T17:26:37.076Z,6.8
2023-02-15T17:31:37.192Z,6.7
2023-02-15T17:36:44.184Z,6.6
2023-02-15T17:42:37.063Z,6.6
2023-02-15T17:47:37.043Z,6.5
2023-02-15T17:52:44.494Z,6.4
2023-02-15T17:58:37.190Z,6.4
2023-02-15T18:03:43.789Z,6.4
2023-02-15T18:08:44.643Z,6.4
2023-02-15T18:14:37.076Z,6.4
2023-02-15T18:19:43.795Z,6.3
2023-02-15T18:25:37.023Z,6.1
2023-02-15T18:30:37.142Z,6.3
2023-02-15T18:35:37.071Z,6.3
2023-02-15T18:40:44.215Z,6
2023-02-15T18:46:37.187Z,5.9
2023-02-15T18:51:43.926Z,5.9
2023-02-15T18:57:37.040Z,5.8
2023-02-15T19:02:37.180Z,5.7
2023-02-15T19:07:37.078Z,5.8
2023-02-15T19:12:43.891Z,5.8
2023-02-15T19:18:37.012Z,5.9
2023-02-15T19:23:44.109Z,5.7
2023-02-15T19:28:44.265Z,5.6
2023-02-15T19:34:37.075Z,5.8
2023-02-15T19:39:43.824Z,5.6
2023-02-15T19:44:44.610Z,5.7
2023-02-15T19:50:37.030Z,5.6
2023-02-15T19:55:44.261Z,5.5
2023-02-15T20:01:37.051Z,5.4
2023-02-15T20:06:37.029Z,5.2
2023-02-15T20:12:37.004Z,5.5
2023-02-15T20:17:37.060Z,5.6
2023-02-15T20:22:37.242Z,5.5
2023-02-15T20:27:44.579Z,5.3
2023-02-15T20:32:44.665Z,5.1
2023-02-15T20:38:37.008Z,5
2023-02-15T20:43:44.306Z,4.9
2023-02-15T20:49:38.608Z,4.8
2023-02-15T20:54:43.877Z,4.8
2023-02-15T21:00:37.059Z,4.9
2023-02-15T21:05:44.009Z,4.8
2023-02-15T21:10:44.378Z,4.8
2023-02-15T21:16:37.092Z,4.7
2023-02-15T21:21:43.833Z,4.7
2023-02-15T21:26:44.018Z,4.7
2023-02-15T21:31:44.380Z,4.5
2023-02-15T21:37:36.991Z,4.6
2023-02-15T21:42:37.037Z,4.5
2023-02-15T21:47:37.039Z,4.5
2023-02-15T21:52:37.092Z,4.6
2023-02-15T21:57:37.111Z,4.7
2023-02-15T22:02:43.860Z,4.6
2023-02-15T22:08:37.043Z,4.5
2023-02-15T22:13:43.770Z,4.6
2023-02-15T22:18:44.706Z,4.6
2023-02-15T22:24:37.050Z,4.6
2023-02-15T22:29:43.854Z,4.7
2023-02-15T22:35:37.064Z,4.5
2023-02-15T22:40:37.048Z,4.4
2023-02-15T22:46:37.067Z,4.6
2023-02-15T22:51:44.473Z,4.4
2023-02-15T22:57:37.034Z,4.3
2023-02-15T23:02:45.033Z,4.3
2023-02-15T23:08:37.060Z,4.2
2023-02-15T23:13:44.643Z,4
2023-02-15T23:19:36.997Z,4
2023-02-15T23:24:44.026Z,3.9
2023-02-15T23:29:44.744Z,3.9
2023-02-15T23:35:36.982Z,3.9
2023-02-15T23:40:37.073Z,3.6
2023-02-15T23:46:37.045Z,3.7
2023-02-15T23:51:37.107Z,4
2023-02-15T23:57:37.045Z,3.6
